sensor_id;sensor_type;location;lat;lon;timestamp;P1;durP1;ratioP1;P2;durP2;ratioP2
71696;SDS011;68167;59.120;37.898;2023-03-24T00:00:18;8.13;;;6.07;;
71696;SDS011;68167;59.120;37.898;2023-03-24T00:02:46;8.00;;;5.93;;
71696;SDS011;68167;59.120;37.898;2023-03-24T00:05:14;9.20;;;6.00;;
71696;SDS011;68167;59.120;37.898;2023-03-24T00:07:46;9.23;;;6.23;;
71696;SDS011;68167;59.120;37.898;2023-03-24T00:10:15;7.17;;;5.30;;
71696;SDS011;68167;59.120;37.898;2023-03-24T00:12:44;8.37;;;5.63;;
71696;SDS011;68167;59.120;37.898;2023-03-24T00:15:16;7.50;;;5.37;;
71696;SDS011;68167;59.120;37.898;2023-03-24T00:17:44;8.70;;;6.17;;
71696;SDS011;68167;59.120;37.898;2023-03-24T00:20:15;8.87;;;5.53;;
71696;SDS011;68167;59.120;37.898;2023-03-24T00:22:43;6.60;;;5.33;;
71696;SDS011;68167;59.120;37.898;2023-03-24T00:25:15;8.67;;;6.00;;
71696;SDS011;68167;59.120;37.898;2023-03-24T00:27:42;8.03;;;5.33;;
71696;SDS011;68167;59.120;37.898;2023-03-24T00:30:10;8.13;;;6.17;;
71696;SDS011;68167;59.120;37.898;2023-03-24T00:32:37;6.13;;;4.80;;
71696;SDS011;68167;59.120;37.898;2023-03-24T00:35:04;8.37;;;5.30;;
71696;SDS011;68167;59.120;37.898;2023-03-24T00:37:37;6.77;;;5.10;;
71696;SDS011;68167;59.120;37.898;2023-03-24T00:40:09;7.23;;;5.33;;
71696;SDS011;68167;59.120;37.898;2023-03-24T00:42:39;6.07;;;4.53;;
71696;SDS011;68167;59.120;37.898;2023-03-24T00:45:06;13.03;;;6.67;;
71696;SDS011;68167;59.120;37.898;2023-03-24T00:47:34;12.90;;;6.33;;
71696;SDS011;68167;59.120;37.898;2023-03-24T00:50:07;9.80;;;5.57;;
71696;SDS011;68167;59.120;37.898;2023-03-24T00:52:37;6.63;;;4.80;;
71696;SDS011;68167;59.120;37.898;2023-03-24T00:55:10;6.90;;;5.33;;
71696;SDS011;68167;59.120;37.898;2023-03-24T00:57:41;8.40;;;4.53;;
71696;SDS011;68167;59.120;37.898;2023-03-24T01:00:16;8.03;;;5.53;;
71696;SDS011;68167;59.120;37.898;2023-03-24T01:02:45;7.27;;;4.80;;
71696;SDS011;68167;59.120;37.898;2023-03-24T01:05:13;5.93;;;4.53;;
71696;SDS011;68167;59.120;37.898;2023-03-24T01:07:42;8.23;;;4.80;;
71696;SDS011;68167;59.120;37.898;2023-03-24T01:10:11;7.27;;;4.83;;
71696;SDS011;68167;59.120;37.898;2023-03-24T01:12:38;15.13;;;5.43;;
71696;SDS011;68167;59.120;37.898;2023-03-24T01:15:07;9.83;;;5.67;;
71696;SDS011;68167;59.120;37.898;2023-03-24T01:17:37;7.00;;;4.63;;
71696;SDS011;68167;59.120;37.898;2023-03-24T01:20:04;6.97;;;5.03;;
71696;SDS011;68167;59.120;37.898;2023-03-24T01:22:36;6.90;;;5.10;;
71696;SDS011;68167;59.120;37.898;2023-03-24T01:25:09;5.50;;;4.20;;
71696;SDS011;68167;59.120;37.898;2023-03-24T01:27:42;7.20;;;4.10;;
71696;SDS011;68167;59.120;37.898;2023-03-24T01:30:11;4.80;;;3.87;;
71696;SDS011;68167;59.120;37.898;2023-03-24T01:32:39;4.37;;;3.57;;
71696;SDS011;68167;59.120;37.898;2023-03-24T01:35:06;4.57;;;3.77;;
71696;SDS011;68167;59.120;37.898;2023-03-24T01:37:33;5.67;;;3.90;;
71696;SDS011;68167;59.120;37.898;2023-03-24T01:39:59;4.70;;;3.87;;
71696;SDS011;68167;59.120;37.898;2023-03-24T01:42:26;5.13;;;3.70;;
71696;SDS011;68167;59.120;37.898;2023-03-24T01:44:55;5.43;;;3.90;;
71696;SDS011;68167;59.120;37.898;2023-03-24T01:47:25;4.47;;;3.53;;
71696;SDS011;68167;59.120;37.898;2023-03-24T01:49:53;6.63;;;4.03;;
71696;SDS011;68167;59.120;37.898;2023-03-24T01:52:26;4.70;;;3.73;;
71696;SDS011;68167;59.120;37.898;2023-03-24T01:54:57;4.03;;;3.30;;
71696;SDS011;68167;59.120;37.898;2023-03-24T01:57:28;4.23;;;3.50;;
71696;SDS011;68167;59.120;37.898;2023-03-24T01:59:59;6.03;;;4.07;;
71696;SDS011;68167;59.120;37.898;2023-03-24T02:02:55;5.10;;;3.93;;
71696;SDS011;68167;59.120;37.898;2023-03-24T02:05:37;3.93;;;3.50;;
71696;SDS011;68167;59.120;37.898;2023-03-24T02:08:17;5.00;;;3.60;;
71696;SDS011;68167;59.120;37.898;2023-03-24T02:10:53;4.87;;;3.70;;
71696;SDS011;68167;59.120;37.898;2023-03-24T02:13:21;4.37;;;3.43;;
71696;SDS011;68167;59.120;37.898;2023-03-24T02:15:56;4.63;;;3.33;;
71696;SDS011;68167;59.120;37.898;2023-03-24T02:18:41;3.80;;;3.07;;
71696;SDS011;68167;59.120;37.898;2023-03-24T02:46:46;3.87;;;3.00;;
71696;SDS011;68167;59.120;37.898;2023-03-24T02:57:34;3.43;;;2.90;;
71696;SDS011;68167;59.120;37.898;2023-03-24T03:00:45;3.03;;;2.73;;
71696;SDS011;68167;59.120;37.898;2023-03-24T03:03:58;3.13;;;2.60;;
71696;SDS011;68167;59.120;37.898;2023-03-24T03:06:32;3.43;;;2.90;;
71696;SDS011;68167;59.120;37.898;2023-03-24T03:09:03;4.63;;;3.20;;
71696;SDS011;68167;59.120;37.898;2023-03-24T03:11:33;3.40;;;3.07;;
71696;SDS011;68167;59.120;37.898;2023-03-24T03:14:08;4.10;;;3.20;;
71696;SDS011;68167;59.120;37.898;2023-03-24T03:16:50;4.37;;;3.43;;
71696;SDS011;68167;59.120;37.898;2023-03-24T03:19:32;4.97;;;3.60;;
71696;SDS011;68167;59.120;37.898;2023-03-24T03:22:03;3.80;;;3.17;;
71696;SDS011;68167;59.120;37.898;2023-03-24T03:24:37;4.43;;;3.23;;
71696;SDS011;68167;59.120;37.898;2023-03-24T03:27:08;7.23;;;3.70;;
71696;SDS011;68167;59.120;37.898;2023-03-24T03:29:56;4.40;;;3.33;;
71696;SDS011;68167;59.120;37.898;2023-03-24T03:32:29;4.13;;;3.20;;
71696;SDS011;68167;59.120;37.898;2023-03-24T03:35:04;5.07;;;3.33;;
71696;SDS011;68167;59.120;37.898;2023-03-24T03:37:43;3.57;;;3.13;;
71696;SDS011;68167;59.120;37.898;2023-03-24T03:40:49;8.60;;;3.07;;
71696;SDS011;68167;59.120;37.898;2023-03-24T03:43:22;4.63;;;3.33;;
71696;SDS011;68167;59.120;37.898;2023-03-24T03:45:50;15.87;;;4.37;;
71696;SDS011;68167;59.120;37.898;2023-03-24T03:48:20;15.13;;;4.57;;
71696;SDS011;68167;59.120;37.898;2023-03-24T03:50:54;43.73;;;5.10;;
71696;SDS011;68167;59.120;37.898;2023-03-24T03:53:22;52.53;;;5.53;;
71696;SDS011;68167;59.120;37.898;2023-03-24T03:55:55;10.90;;;3.70;;
71696;SDS011;68167;59.120;37.898;2023-03-24T03:58:22;37.23;;;4.73;;
71696;SDS011;68167;59.120;37.898;2023-03-24T04:00:54;19.10;;;3.90;;
71696;SDS011;68167;59.120;37.898;2023-03-24T04:19:59;16.93;;;3.73;;
71696;SDS011;68167;59.120;37.898;2023-03-24T04:27:46;25.27;;;4.20;;
71696;SDS011;68167;59.120;37.898;2023-03-24T04:33:04;6.87;;;3.50;;
71696;SDS011;68167;59.120;37.898;2023-03-24T04:35:37;16.50;;;4.37;;
71696;SDS011;68167;59.120;37.898;2023-03-24T04:38:33;27.97;;;3.97;;
71696;SDS011;68167;59.120;37.898;2023-03-24T04:41:28;19.13;;;4.17;;
71696;SDS011;68167;59.120;37.898;2023-03-24T04:44:23;15.03;;;3.50;;
71696;SDS011;68167;59.120;37.898;2023-03-24T04:47:10;8.00;;;3.87;;
71696;SDS011;68167;59.120;37.898;2023-03-24T04:49:41;13.03;;;3.67;;
71696;SDS011;68167;59.120;37.898;2023-03-24T04:52:07;13.27;;;3.40;;
71696;SDS011;68167;59.120;37.898;2023-03-24T04:54:34;16.97;;;3.80;;
71696;SDS011;68167;59.120;37.898;2023-03-24T04:57:04;12.07;;;4.13;;
71696;SDS011;68167;59.120;37.898;2023-03-24T04:59:33;13.23;;;3.67;;
71696;SDS011;68167;59.120;37.898;2023-03-24T05:02:02;7.20;;;3.80;;
71696;SDS011;68167;59.120;37.898;2023-03-24T05:04:28;24.87;;;3.80;;
71696;SDS011;68167;59.120;37.898;2023-03-24T05:06:59;11.10;;;3.47;;
71696;SDS011;68167;59.120;37.898;2023-03-24T05:09:26;11.90;;;3.00;;
71696;SDS011;68167;59.120;37.898;2023-03-24T05:11:52;8.53;;;3.30;;
71696;SDS011;68167;59.120;37.898;2023-03-24T05:14:21;14.80;;;3.20;;
71696;SDS011;68167;59.120;37.898;2023-03-24T05:16:48;6.10;;;2.90;;
71696;SDS011;68167;59.120;37.898;2023-03-24T05:19:17;21.93;;;3.20;;
71696;SDS011;68167;59.120;37.898;2023-03-24T05:21:43;27.67;;;3.73;;
71696;SDS011;68167;59.120;37.898;2023-03-24T05:24:11;27.47;;;3.60;;
71696;SDS011;68167;59.120;37.898;2023-03-24T05:26:37;10.03;;;3.40;;
71696;SDS011;68167;59.120;37.898;2023-03-24T05:29:08;4.73;;;2.90;;
71696;SDS011;68167;59.120;37.898;2023-03-24T05:31:35;11.93;;;2.43;;
71696;SDS011;68167;59.120;37.898;2023-03-24T05:34:07;11.13;;;2.47;;
71696;SDS011;68167;59.120;37.898;2023-03-24T05:36:43;8.53;;;3.20;;
71696;SDS011;68167;59.120;37.898;2023-03-24T05:39:12;11.23;;;3.03;;
71696;SDS011;68167;59.120;37.898;2023-03-24T05:41:53;9.43;;;2.90;;
71696;SDS011;68167;59.120;37.898;2023-03-24T05:44:19;10.87;;;3.33;;
71696;SDS011;68167;59.120;37.898;2023-03-24T05:46:57;11.67;;;3.23;;
71696;SDS011;68167;59.120;37.898;2023-03-24T05:49:23;44.67;;;3.70;;
71696;SDS011;68167;59.120;37.898;2023-03-24T05:51:50;17.83;;;3.00;;
71696;SDS011;68167;59.120;37.898;2023-03-24T05:54:17;35.90;;;3.70;;
71696;SDS011;68167;59.120;37.898;2023-03-24T05:56:47;33.27;;;4.80;;
71696;SDS011;68167;59.120;37.898;2023-03-24T05:59:40;28.77;;;4.77;;
71696;SDS011;68167;59.120;37.898;2023-03-24T06:02:17;11.83;;;3.20;;
71696;SDS011;68167;59.120;37.898;2023-03-24T06:05:04;6.27;;;3.20;;
71696;SDS011;68167;59.120;37.898;2023-03-24T06:07:33;15.40;;;5.07;;
71696;SDS011;68167;59.120;37.898;2023-03-24T06:09:59;18.47;;;6.13;;
71696;SDS011;68167;59.120;37.898;2023-03-24T06:12:38;21.63;;;8.33;;
71696;SDS011;68167;59.120;37.898;2023-03-24T06:15:06;52.37;;;7.07;;
71696;SDS011;68167;59.120;37.898;2023-03-24T06:17:33;47.67;;;5.50;;
71696;SDS011;68167;59.120;37.898;2023-03-24T06:20:08;34.43;;;5.63;;
71696;SDS011;68167;59.120;37.898;2023-03-24T06:22:53;55.67;;;5.30;;
71696;SDS011;68167;59.120;37.898;2023-03-24T06:25:26;15.00;;;4.07;;
71696;SDS011;68167;59.120;37.898;2023-03-24T06:28:11;40.23;;;4.33;;
71696;SDS011;68167;59.120;37.898;2023-03-24T06:30:44;31.07;;;5.57;;
71696;SDS011;68167;59.120;37.898;2023-03-24T06:33:15;59.27;;;5.90;;
71696;SDS011;68167;59.120;37.898;2023-03-24T06:35:43;212.03;;;10.43;;
71696;SDS011;68167;59.120;37.898;2023-03-24T06:38:13;167.83;;;8.97;;
71696;SDS011;68167;59.120;37.898;2023-03-24T06:40:40;31.53;;;5.63;;
71696;SDS011;68167;59.120;37.898;2023-03-24T06:43:07;43.23;;;5.30;;
71696;SDS011;68167;59.120;37.898;2023-03-24T06:45:36;17.17;;;5.67;;
71696;SDS011;68167;59.120;37.898;2023-03-24T06:48:05;69.47;;;5.77;;
71696;SDS011;68167;59.120;37.898;2023-03-24T06:50:32;58.57;;;6.13;;
71696;SDS011;68167;59.120;37.898;2023-03-24T06:53:05;38.40;;;5.40;;
71696;SDS011;68167;59.120;37.898;2023-03-24T06:55:34;48.60;;;5.50;;
71696;SDS011;68167;59.120;37.898;2023-03-24T06:58:02;17.30;;;4.03;;
71696;SDS011;68167;59.120;37.898;2023-03-24T07:00:56;27.47;;;4.37;;
71696;SDS011;68167;59.120;37.898;2023-03-24T07:04:03;28.23;;;5.10;;
71696;SDS011;68167;59.120;37.898;2023-03-24T07:06:33;29.43;;;5.23;;
71696;SDS011;68167;59.120;37.898;2023-03-24T07:09:08;47.20;;;5.50;;
71696;SDS011;68167;59.120;37.898;2023-03-24T07:11:35;42.57;;;5.50;;
71696;SDS011;68167;59.120;37.898;2023-03-24T07:14:02;40.70;;;4.93;;
71696;SDS011;68167;59.120;37.898;2023-03-24T07:16:30;24.30;;;5.30;;
71696;SDS011;68167;59.120;37.898;2023-03-24T07:19:11;21.23;;;6.03;;
71696;SDS011;68167;59.120;37.898;2023-03-24T07:21:39;38.20;;;8.67;;
71696;SDS011;68167;59.120;37.898;2023-03-24T07:24:06;47.40;;;10.00;;
71696;SDS011;68167;59.120;37.898;2023-03-24T07:26:42;36.20;;;8.03;;
71696;SDS011;68167;59.120;37.898;2023-03-24T07:29:27;38.00;;;7.47;;
71696;SDS011;68167;59.120;37.898;2023-03-24T07:32:06;21.57;;;6.37;;
71696;SDS011;68167;59.120;37.898;2023-03-24T07:34:33;37.07;;;6.27;;
71696;SDS011;68167;59.120;37.898;2023-03-24T07:37:02;11.40;;;4.80;;
71696;SDS011;68167;59.120;37.898;2023-03-24T07:39:28;20.73;;;4.70;;
71696;SDS011;68167;59.120;37.898;2023-03-24T07:41:56;15.33;;;4.53;;
71696;SDS011;68167;59.120;37.898;2023-03-24T07:44:42;12.70;;;3.97;;
71696;SDS011;68167;59.120;37.898;2023-03-24T07:47:08;18.33;;;3.90;;
71696;SDS011;68167;59.120;37.898;2023-03-24T07:49:36;60.80;;;5.10;;
71696;SDS011;68167;59.120;37.898;2023-03-24T07:52:05;13.47;;;3.63;;
71696;SDS011;68167;59.120;37.898;2023-03-24T07:54:35;12.03;;;3.17;;
71696;SDS011;68167;59.120;37.898;2023-03-24T07:57:01;16.03;;;3.57;;
71696;SDS011;68167;59.120;37.898;2023-03-24T07:59:28;8.33;;;4.40;;
71696;SDS011;68167;59.120;37.898;2023-03-24T08:02:03;15.67;;;4.30;;
71696;SDS011;68167;59.120;37.898;2023-03-24T08:04:49;18.17;;;5.13;;
71696;SDS011;68167;59.120;37.898;2023-03-24T08:07:30;7.13;;;4.83;;
71696;SDS011;68167;59.120;37.898;2023-03-24T08:09:56;7.17;;;4.47;;
71696;SDS011;68167;59.120;37.898;2023-03-24T08:12:22;12.20;;;4.07;;
71696;SDS011;68167;59.120;37.898;2023-03-24T08:14:48;10.33;;;4.20;;
71696;SDS011;68167;59.120;37.898;2023-03-24T08:17:15;5.77;;;4.00;;
71696;SDS011;68167;59.120;37.898;2023-03-24T08:19:41;9.77;;;4.00;;
71696;SDS011;68167;59.120;37.898;2023-03-24T08:22:08;12.50;;;4.90;;
71696;SDS011;68167;59.120;37.898;2023-03-24T08:24:34;16.33;;;4.37;;
71696;SDS011;68167;59.120;37.898;2023-03-24T08:27:01;5.77;;;4.03;;
71696;SDS011;68167;59.120;37.898;2023-03-24T08:29:32;7.57;;;3.73;;
71696;SDS011;68167;59.120;37.898;2023-03-24T08:32:02;8.33;;;4.37;;
71696;SDS011;68167;59.120;37.898;2023-03-24T08:34:29;5.87;;;3.90;;
71696;SDS011;68167;59.120;37.898;2023-03-24T08:36:55;6.80;;;4.20;;
71696;SDS011;68167;59.120;37.898;2023-03-24T08:39:22;6.30;;;4.57;;
71696;SDS011;68167;59.120;37.898;2023-03-24T08:41:48;5.57;;;4.17;;
71696;SDS011;68167;59.120;37.898;2023-03-24T08:44:15;9.20;;;5.07;;
71696;SDS011;68167;59.120;37.898;2023-03-24T08:46:42;9.97;;;6.37;;
71696;SDS011;68167;59.120;37.898;2023-03-24T08:49:08;9.23;;;6.13;;
71696;SDS011;68167;59.120;37.898;2023-03-24T08:51:34;9.50;;;6.33;;
71696;SDS011;68167;59.120;37.898;2023-03-24T08:54:00;8.97;;;5.87;;
71696;SDS011;68167;59.120;37.898;2023-03-24T08:56:28;7.53;;;5.70;;
71696;SDS011;68167;59.120;37.898;2023-03-24T08:58:55;7.33;;;5.50;;
71696;SDS011;68167;59.120;37.898;2023-03-24T09:01:22;7.30;;;5.10;;
71696;SDS011;68167;59.120;37.898;2023-03-24T09:03:49;5.77;;;4.77;;
71696;SDS011;68167;59.120;37.898;2023-03-24T09:06:15;6.47;;;4.83;;
71696;SDS011;68167;59.120;37.898;2023-03-24T09:08:42;8.33;;;4.90;;
71696;SDS011;68167;59.120;37.898;2023-03-24T09:11:16;4.90;;;3.80;;
71696;SDS011;68167;59.120;37.898;2023-03-24T09:13:44;4.57;;;4.00;;
71696;SDS011;68167;59.120;37.898;2023-03-24T09:16:11;4.90;;;3.70;;
71696;SDS011;68167;59.120;37.898;2023-03-24T09:18:38;4.73;;;3.67;;
71696;SDS011;68167;59.120;37.898;2023-03-24T09:21:04;6.00;;;3.60;;
71696;SDS011;68167;59.120;37.898;2023-03-24T09:23:31;5.60;;;3.37;;
71696;SDS011;68167;59.120;37.898;2023-03-24T09:25:58;6.30;;;3.33;;
71696;SDS011;68167;59.120;37.898;2023-03-24T09:28:26;4.90;;;3.30;;
71696;SDS011;68167;59.120;37.898;2023-03-24T09:30:57;4.40;;;3.40;;
71696;SDS011;68167;59.120;37.898;2023-03-24T09:33:24;5.67;;;3.47;;
71696;SDS011;68167;59.120;37.898;2023-03-24T09:35:58;4.57;;;3.00;;
71696;SDS011;68167;59.120;37.898;2023-03-24T09:38:26;6.57;;;3.40;;
71696;SDS011;68167;59.120;37.898;2023-03-24T09:40:54;6.77;;;3.73;;
71696;SDS011;68167;59.120;37.898;2023-03-24T09:45:56;4.73;;;3.00;;
71696;SDS011;68167;59.120;37.898;2023-03-24T09:51:34;4.20;;;2.73;;
71696;SDS011;68167;59.120;37.898;2023-03-24T09:54:17;3.70;;;2.63;;
71696;SDS011;68167;59.120;37.898;2023-03-24T09:56:45;4.03;;;2.83;;
71696;SDS011;68167;59.120;37.898;2023-03-24T09:59:19;3.00;;;2.57;;
71696;SDS011;68167;59.120;37.898;2023-03-24T10:01:51;3.80;;;2.70;;
71696;SDS011;68167;59.120;37.898;2023-03-24T10:04:19;3.70;;;2.77;;
71696;SDS011;68167;59.120;37.898;2023-03-24T10:06:47;4.27;;;2.80;;
71696;SDS011;68167;59.120;37.898;2023-03-24T10:09:22;4.83;;;2.80;;
71696;SDS011;68167;59.120;37.898;2023-03-24T10:12:00;3.60;;;2.27;;
71696;SDS011;68167;59.120;37.898;2023-03-24T10:25:16;5.73;;;3.50;;
71696;SDS011;68167;59.120;37.898;2023-03-24T10:27:51;5.00;;;2.80;;
71696;SDS011;68167;59.120;37.898;2023-03-24T10:30:27;3.70;;;2.67;;
71696;SDS011;68167;59.120;37.898;2023-03-24T10:32:58;4.40;;;2.87;;
71696;SDS011;68167;59.120;37.898;2023-03-24T10:35:26;4.10;;;2.87;;
71696;SDS011;68167;59.120;37.898;2023-03-24T10:37:58;3.00;;;2.70;;
71696;SDS011;68167;59.120;37.898;2023-03-24T10:40:29;3.30;;;2.77;;
71696;SDS011;68167;59.120;37.898;2023-03-24T10:42:57;3.57;;;2.70;;
71696;SDS011;68167;59.120;37.898;2023-03-24T10:45:31;6.27;;;3.57;;
71696;SDS011;68167;59.120;37.898;2023-03-24T10:48:00;6.57;;;4.17;;
71696;SDS011;68167;59.120;37.898;2023-03-24T10:50:28;5.40;;;3.23;;
71696;SDS011;68167;59.120;37.898;2023-03-24T10:52:55;5.00;;;2.90;;
71696;SDS011;68167;59.120;37.898;2023-03-24T10:55:23;3.50;;;3.10;;
71696;SDS011;68167;59.120;37.898;2023-03-24T10:57:59;4.70;;;3.50;;
71696;SDS011;68167;59.120;37.898;2023-03-24T11:00:29;4.00;;;3.27;;
71696;SDS011;68167;59.120;37.898;2023-03-24T11:03:01;5.13;;;3.07;;
71696;SDS011;68167;59.120;37.898;2023-03-24T11:05:37;5.30;;;2.93;;
71696;SDS011;68167;59.120;37.898;2023-03-24T11:08:11;5.27;;;3.30;;
71696;SDS011;68167;59.120;37.898;2023-03-24T11:10:42;4.30;;;3.27;;
71696;SDS011;68167;59.120;37.898;2023-03-24T11:13:42;3.73;;;2.90;;
71696;SDS011;68167;59.120;37.898;2023-03-24T11:18:34;3.87;;;3.17;;
71696;SDS011;68167;59.120;37.898;2023-03-24T11:21:01;4.70;;;3.10;;
71696;SDS011;68167;59.120;37.898;2023-03-24T11:23:36;3.40;;;3.10;;
71696;SDS011;68167;59.120;37.898;2023-03-24T11:26:06;4.77;;;3.47;;
71696;SDS011;68167;59.120;37.898;2023-03-24T11:28:44;4.87;;;3.67;;
71696;SDS011;68167;59.120;37.898;2023-03-24T11:31:19;4.27;;;3.17;;
71696;SDS011;68167;59.120;37.898;2023-03-24T11:36:57;4.90;;;3.57;;
71696;SDS011;68167;59.120;37.898;2023-03-24T11:39:30;4.63;;;3.00;;
71696;SDS011;68167;59.120;37.898;2023-03-24T11:47:05;3.40;;;3.10;;
71696;SDS011;68167;59.120;37.898;2023-03-24T11:50:12;3.90;;;3.00;;
71696;SDS011;68167;59.120;37.898;2023-03-24T11:55:42;3.77;;;3.10;;
71696;SDS011;68167;59.120;37.898;2023-03-24T11:58:25;4.73;;;3.23;;
71696;SDS011;68167;59.120;37.898;2023-03-24T12:12:34;4.47;;;3.33;;
71696;SDS011;68167;59.120;37.898;2023-03-24T12:17:41;3.97;;;3.10;;
71696;SDS011;68167;59.120;37.898;2023-03-24T12:23:07;5.33;;;3.53;;
71696;SDS011;68167;59.120;37.898;2023-03-24T12:25:54;5.03;;;3.43;;
71696;SDS011;68167;59.120;37.898;2023-03-24T12:37:09;3.77;;;2.97;;
71696;SDS011;68167;59.120;37.898;2023-03-24T12:39:51;4.20;;;3.13;;
71696;SDS011;68167;59.120;37.898;2023-03-24T12:42:26;3.93;;;3.13;;
71696;SDS011;68167;59.120;37.898;2023-03-24T12:56:10;4.27;;;3.13;;
71696;SDS011;68167;59.120;37.898;2023-03-24T13:04:10;4.30;;;3.13;;
71696;SDS011;68167;59.120;37.898;2023-03-24T13:06:47;3.97;;;2.27;;
71696;SDS011;68167;59.120;37.898;2023-03-24T13:17:33;2.87;;;2.20;;
71696;SDS011;68167;59.120;37.898;2023-03-24T13:20:04;3.60;;;2.00;;
71696;SDS011;68167;59.120;37.898;2023-03-24T13:22:37;2.97;;;2.23;;
71696;SDS011;68167;59.120;37.898;2023-03-24T13:25:07;2.57;;;2.13;;
71696;SDS011;68167;59.120;37.898;2023-03-24T13:27:44;2.20;;;1.80;;
71696;SDS011;68167;59.120;37.898;2023-03-24T13:32:54;3.07;;;2.60;;
71696;SDS011;68167;59.120;37.898;2023-03-24T13:38:46;4.03;;;2.10;;
71696;SDS011;68167;59.120;37.898;2023-03-24T13:41:12;3.60;;;2.23;;
71696;SDS011;68167;59.120;37.898;2023-03-24T13:43:46;3.17;;;2.27;;
71696;SDS011;68167;59.120;37.898;2023-03-24T13:46:15;2.93;;;2.50;;
71696;SDS011;68167;59.120;37.898;2023-03-24T13:48:45;3.47;;;2.33;;
71696;SDS011;68167;59.120;37.898;2023-03-24T13:51:17;5.97;;;3.53;;
71696;SDS011;68167;59.120;37.898;2023-03-24T13:53:51;4.90;;;3.20;;
71696;SDS011;68167;59.120;37.898;2023-03-24T13:56:46;4.87;;;3.27;;
71696;SDS011;68167;59.120;37.898;2023-03-24T13:59:26;3.17;;;2.33;;
71696;SDS011;68167;59.120;37.898;2023-03-24T14:02:15;3.10;;;2.53;;
71696;SDS011;68167;59.120;37.898;2023-03-24T14:07:48;3.03;;;2.30;;
71696;SDS011;68167;59.120;37.898;2023-03-24T14:15:34;2.80;;;2.37;;
71696;SDS011;68167;59.120;37.898;2023-03-24T14:26:39;3.10;;;2.30;;
71696;SDS011;68167;59.120;37.898;2023-03-24T14:29:25;3.40;;;2.73;;
71696;SDS011;68167;59.120;37.898;2023-03-24T14:32:02;15.40;;;4.00;;
71696;SDS011;68167;59.120;37.898;2023-03-24T14:34:29;7.17;;;5.10;;
71696;SDS011;68167;59.120;37.898;2023-03-24T14:37:01;5.17;;;4.07;;
71696;SDS011;68167;59.120;37.898;2023-03-24T14:39:32;5.90;;;4.53;;
71696;SDS011;68167;59.120;37.898;2023-03-24T14:45:01;7.97;;;5.27;;
71696;SDS011;68167;59.120;37.898;2023-03-24T14:47:30;7.50;;;5.00;;
71696;SDS011;68167;59.120;37.898;2023-03-24T14:49:59;6.20;;;4.30;;
71696;SDS011;68167;59.120;37.898;2023-03-24T14:52:36;4.83;;;3.70;;
71696;SDS011;68167;59.120;37.898;2023-03-24T14:55:11;5.43;;;4.27;;
71696;SDS011;68167;59.120;37.898;2023-03-24T14:57:45;4.57;;;3.73;;
71696;SDS011;68167;59.120;37.898;2023-03-24T15:00:18;4.50;;;3.77;;
71696;SDS011;68167;59.120;37.898;2023-03-24T15:09:08;5.13;;;4.13;;
71696;SDS011;68167;59.120;37.898;2023-03-24T15:11:36;5.60;;;4.13;;
71696;SDS011;68167;59.120;37.898;2023-03-24T15:14:05;8.10;;;4.43;;
71696;SDS011;68167;59.120;37.898;2023-03-24T15:16:38;9.50;;;5.40;;
71696;SDS011;68167;59.120;37.898;2023-03-24T15:19:07;7.63;;;4.53;;
71696;SDS011;68167;59.120;37.898;2023-03-24T15:21:36;8.20;;;4.47;;
71696;SDS011;68167;59.120;37.898;2023-03-24T15:26:46;10.43;;;6.40;;
71696;SDS011;68167;59.120;37.898;2023-03-24T15:29:13;7.77;;;4.57;;
71696;SDS011;68167;59.120;37.898;2023-03-24T15:31:39;8.80;;;4.10;;
71696;SDS011;68167;59.120;37.898;2023-03-24T15:36:56;72.10;;;6.60;;
71696;SDS011;68167;59.120;37.898;2023-03-24T15:39:28;6.07;;;4.17;;
71696;SDS011;68167;59.120;37.898;2023-03-24T15:41:58;10.53;;;3.73;;
71696;SDS011;68167;59.120;37.898;2023-03-24T15:44:26;57.70;;;6.13;;
71696;SDS011;68167;59.120;37.898;2023-03-24T15:46:57;8.13;;;3.80;;
71696;SDS011;68167;59.120;37.898;2023-03-24T15:49:31;11.80;;;3.70;;
71696;SDS011;68167;59.120;37.898;2023-03-24T15:52:03;20.03;;;3.90;;
71696;SDS011;68167;59.120;37.898;2023-03-24T15:54:48;27.03;;;5.10;;
71696;SDS011;68167;59.120;37.898;2023-03-24T15:57:17;9.33;;;4.43;;
71696;SDS011;68167;59.120;37.898;2023-03-24T15:59:45;21.83;;;6.43;;
71696;SDS011;68167;59.120;37.898;2023-03-24T16:02:19;147.20;;;10.53;;
71696;SDS011;68167;59.120;37.898;2023-03-24T16:05:04;13.90;;;4.57;;
71696;SDS011;68167;59.120;37.898;2023-03-24T16:07:44;6.57;;;3.80;;
71696;SDS011;68167;59.120;37.898;2023-03-24T16:10:25;6.03;;;2.80;;
71696;SDS011;68167;59.120;37.898;2023-03-24T16:13:17;9.87;;;3.40;;
71696;SDS011;68167;59.120;37.898;2023-03-24T16:15:46;7.00;;;3.10;;
71696;SDS011;68167;59.120;37.898;2023-03-24T16:18:20;10.97;;;3.33;;
71696;SDS011;68167;59.120;37.898;2023-03-24T16:23:47;36.73;;;5.30;;
71696;SDS011;68167;59.120;37.898;2023-03-24T16:26:15;66.40;;;5.87;;
71696;SDS011;68167;59.120;37.898;2023-03-24T16:28:47;140.97;;;7.93;;
71696;SDS011;68167;59.120;37.898;2023-03-24T16:31:24;40.07;;;4.13;;
71696;SDS011;68167;59.120;37.898;2023-03-24T16:33:55;156.73;;;8.17;;
71696;SDS011;68167;59.120;37.898;2023-03-24T16:36:22;35.23;;;4.33;;
71696;SDS011;68167;59.120;37.898;2023-03-24T16:38:51;69.77;;;5.50;;
71696;SDS011;68167;59.120;37.898;2023-03-24T16:41:19;34.10;;;4.87;;
71696;SDS011;68167;59.120;37.898;2023-03-24T16:43:46;66.63;;;6.20;;
71696;SDS011;68167;59.120;37.898;2023-03-24T16:46:17;175.87;;;10.70;;
71696;SDS011;68167;59.120;37.898;2023-03-24T16:48:52;152.87;;;8.50;;
71696;SDS011;68167;59.120;37.898;2023-03-24T16:51:18;427.27;;;20.47;;
71696;SDS011;68167;59.120;37.898;2023-03-24T16:53:45;131.07;;;8.17;;
71696;SDS011;68167;59.120;37.898;2023-03-24T16:56:12;174.10;;;9.50;;
71696;SDS011;68167;59.120;37.898;2023-03-24T16:58:40;149.63;;;7.50;;
71696;SDS011;68167;59.120;37.898;2023-03-24T17:01:17;146.10;;;7.97;;
71696;SDS011;68167;59.120;37.898;2023-03-24T17:04:06;231.73;;;9.83;;
71696;SDS011;68167;59.120;37.898;2023-03-24T17:06:37;108.63;;;7.90;;
71696;SDS011;68167;59.120;37.898;2023-03-24T17:09:07;76.70;;;7.27;;
71696;SDS011;68167;59.120;37.898;2023-03-24T17:11:35;35.80;;;6.20;;
71696;SDS011;68167;59.120;37.898;2023-03-24T17:14:04;23.47;;;6.23;;
71696;SDS011;68167;59.120;37.898;2023-03-24T17:16:33;35.13;;;7.20;;
71696;SDS011;68167;59.120;37.898;2023-03-24T17:19:02;21.87;;;7.23;;
71696;SDS011;68167;59.120;37.898;2023-03-24T17:21:29;13.17;;;5.03;;
71696;SDS011;68167;59.120;37.898;2023-03-24T17:23:59;76.53;;;6.47;;
71696;SDS011;68167;59.120;37.898;2023-03-24T17:26:26;24.50;;;4.23;;
71696;SDS011;68167;59.120;37.898;2023-03-24T17:28:52;14.80;;;3.70;;
71696;SDS011;68167;59.120;37.898;2023-03-24T17:31:18;126.77;;;7.10;;
71696;SDS011;68167;59.120;37.898;2023-03-24T17:33:45;180.43;;;8.57;;
71696;SDS011;68167;59.120;37.898;2023-03-24T17:36:15;68.67;;;5.17;;
71696;SDS011;68167;59.120;37.898;2023-03-24T17:38:42;103.50;;;5.90;;
71696;SDS011;68167;59.120;37.898;2023-03-24T17:41:11;31.53;;;3.67;;
71696;SDS011;68167;59.120;37.898;2023-03-24T17:43:38;78.50;;;11.63;;
71696;SDS011;68167;59.120;37.898;2023-03-24T17:46:05;176.00;;;8.70;;
71696;SDS011;68167;59.120;37.898;2023-03-24T17:48:31;64.13;;;6.03;;
71696;SDS011;68167;59.120;37.898;2023-03-24T17:50:58;114.40;;;7.60;;
71696;SDS011;68167;59.120;37.898;2023-03-24T17:53:24;64.80;;;5.43;;
71696;SDS011;68167;59.120;37.898;2023-03-24T17:55:51;8.37;;;3.30;;